sensor_id;sensor_type;location;lat;lon;timestamp;P1;durP1;ratioP1;P2;durP2;ratioP2
26157;SDS011;67284;44.782;10.282;2024-01-11T00:00:45;29.42;;;14.90;;
26157;SDS011;67284;44.782;10.282;2024-01-11T00:05:36;25.23;;;13.90;;
26157;SDS011;67284;44.782;10.282;2024-01-11T00:10:28;27.45;;;14.07;;
26157;SDS011;67284;44.782;10.282;2024-01-11T00:15:20;25.60;;;14.35;;
26157;SDS011;67284;44.782;10.282;2024-01-11T00:20:12;31.55;;;15.00;;
26157;SDS011;67284;44.782;10.282;2024-01-11T00:25:04;28.33;;;13.90;;
26157;SDS011;67284;44.782;10.282;2024-01-11T00:29:56;29.08;;;14.07;;
26157;SDS011;67284;44.782;10.282;2024-01-11T00:34:48;32.45;;;16.40;;
26157;SDS011;67284;44.782;10.282;2024-01-11T00:39:40;34.85;;;16.38;;
26157;SDS011;67284;44.782;10.282;2024-01-11T00:44:31;29.35;;;16.38;;
26157;SDS011;67284;44.782;10.282;2024-01-11T00:49:24;28.33;;;14.70;;
26157;SDS011;67284;44.782;10.282;2024-01-11T00:54:16;32.72;;;16.15;;
26157;SDS011;67284;44.782;10.282;2024-01-11T00:59:08;29.95;;;15.43;;
26157;SDS011;67284;44.782;10.282;2024-01-11T01:04:00;30.02;;;14.60;;
26157;SDS011;67284;44.782;10.282;2024-01-11T01:08:53;22.63;;;13.02;;
26157;SDS011;67284;44.782;10.282;2024-01-11T01:13:46;28.88;;;14.40;;
26157;SDS011;67284;44.782;10.282;2024-01-11T01:18:37;23.10;;;11.70;;
26157;SDS011;67284;44.782;10.282;2024-01-11T01:23:29;22.35;;;12.10;;
26157;SDS011;67284;44.782;10.282;2024-01-11T01:28:21;24.55;;;12.40;;
26157;SDS011;67284;44.782;10.282;2024-01-11T01:33:13;23.33;;;12.23;;
26157;SDS011;67284;44.782;10.282;2024-01-11T01:38:05;26.35;;;12.98;;
26157;SDS011;67284;44.782;10.282;2024-01-11T01:42:58;25.77;;;12.13;;
26157;SDS011;67284;44.782;10.282;2024-01-11T01:47:51;22.23;;;11.20;;
26157;SDS011;67284;44.782;10.282;2024-01-11T01:52:43;22.92;;;11.52;;
26157;SDS011;67284;44.782;10.282;2024-01-11T01:57:35;19.95;;;11.50;;
26157;SDS011;67284;44.782;10.282;2024-01-11T02:02:28;21.95;;;11.52;;
26157;SDS011;67284;44.782;10.282;2024-01-11T02:07:22;23.40;;;11.88;;
26157;SDS011;67284;44.782;10.282;2024-01-11T02:12:15;23.08;;;11.80;;
26157;SDS011;67284;44.782;10.282;2024-01-11T02:17:07;25.08;;;11.68;;
26157;SDS011;67284;44.782;10.282;2024-01-11T02:22:04;21.98;;;9.88;;
26157;SDS011;67284;44.782;10.282;2024-01-11T02:27:03;20.65;;;11.15;;
26157;SDS011;67284;44.782;10.282;2024-01-11T02:31:57;20.05;;;10.20;;
26157;SDS011;67284;44.782;10.282;2024-01-11T02:36:50;20.35;;;11.05;;
26157;SDS011;67284;44.782;10.282;2024-01-11T02:41:43;19.75;;;10.85;;
26157;SDS011;67284;44.782;10.282;2024-01-11T02:46:35;21.98;;;11.23;;
26157;SDS011;67284;44.782;10.282;2024-01-11T02:51:28;18.55;;;9.95;;
26157;SDS011;67284;44.782;10.282;2024-01-11T02:56:19;18.88;;;9.68;;
26157;SDS011;67284;44.782;10.282;2024-01-11T03:01:11;19.33;;;9.90;;
26157;SDS011;67284;44.782;10.282;2024-01-11T03:06:03;19.20;;;10.10;;
26157;SDS011;67284;44.782;10.282;2024-01-11T03:10:55;21.55;;;10.55;;
26157;SDS011;67284;44.782;10.282;2024-01-11T03:15:47;22.35;;;9.70;;
26157;SDS011;67284;44.782;10.282;2024-01-11T03:20:39;21.77;;;10.52;;
26157;SDS011;67284;44.782;10.282;2024-01-11T03:25:31;22.58;;;10.50;;
26157;SDS011;67284;44.782;10.282;2024-01-11T03:30:23;18.27;;;9.85;;
26157;SDS011;67284;44.782;10.282;2024-01-11T03:35:15;18.60;;;9.88;;
26157;SDS011;67284;44.782;10.282;2024-01-11T03:40:07;19.85;;;10.43;;
26157;SDS011;67284;44.782;10.282;2024-01-11T03:44:59;21.13;;;10.38;;
26157;SDS011;67284;44.782;10.282;2024-01-11T03:49:51;23.02;;;11.35;;
26157;SDS011;67284;44.782;10.282;2024-01-11T03:54:42;24.00;;;10.30;;
26157;SDS011;67284;44.782;10.282;2024-01-11T03:59:34;22.40;;;9.98;;
26157;SDS011;67284;44.782;10.282;2024-01-11T04:04:26;18.60;;;10.02;;
26157;SDS011;67284;44.782;10.282;2024-01-11T04:09:18;21.88;;;10.85;;
26157;SDS011;67284;44.782;10.282;2024-01-11T04:14:11;21.67;;;10.95;;
26157;SDS011;67284;44.782;10.282;2024-01-11T04:19:04;18.77;;;9.63;;
26157;SDS011;67284;44.782;10.282;2024-01-11T04:23:56;18.75;;;10.07;;
26157;SDS011;67284;44.782;10.282;2024-01-11T04:28:49;20.63;;;10.05;;
26157;SDS011;67284;44.782;10.282;2024-01-11T04:33:41;22.42;;;10.48;;
26157;SDS011;67284;44.782;10.282;2024-01-11T04:38:33;19.45;;;9.98;;
26157;SDS011;67284;44.782;10.282;2024-01-11T04:43:25;16.27;;;9.50;;
26157;SDS011;67284;44.782;10.282;2024-01-11T04:48:17;21.25;;;10.65;;
26157;SDS011;67284;44.782;10.282;2024-01-11T04:53:09;20.55;;;10.50;;
26157;SDS011;67284;44.782;10.282;2024-01-11T04:58:01;20.33;;;9.80;;
26157;SDS011;67284;44.782;10.282;2024-01-11T05:02:54;20.58;;;9.50;;
26157;SDS011;67284;44.782;10.282;2024-01-11T05:07:46;16.05;;;9.60;;
26157;SDS011;67284;44.782;10.282;2024-01-11T05:12:38;19.85;;;9.95;;
26157;SDS011;67284;44.782;10.282;2024-01-11T05:17:30;20.00;;;9.95;;
26157;SDS011;67284;44.782;10.282;2024-01-11T05:22:22;19.67;;;9.52;;
26157;SDS011;67284;44.782;10.282;2024-01-11T05:27:14;21.10;;;10.75;;
26157;SDS011;67284;44.782;10.282;2024-01-11T05:32:06;21.20;;;10.35;;
26157;SDS011;67284;44.782;10.282;2024-01-11T05:36:58;16.45;;;10.00;;
26157;SDS011;67284;44.782;10.282;2024-01-11T05:41:51;19.17;;;10.55;;
26157;SDS011;67284;44.782;10.282;2024-01-11T05:46:43;19.48;;;9.70;;
26157;SDS011;67284;44.782;10.282;2024-01-11T05:51:35;23.30;;;10.77;;
26157;SDS011;67284;44.782;10.282;2024-01-11T05:56:27;21.08;;;10.20;;
26157;SDS011;67284;44.782;10.282;2024-01-11T06:01:19;22.90;;;10.95;;
26157;SDS011;67284;44.782;10.282;2024-01-11T06:06:11;23.67;;;12.35;;
26157;SDS011;67284;44.782;10.282;2024-01-11T06:11:03;19.73;;;10.52;;
26157;SDS011;67284;44.782;10.282;2024-01-11T06:15:56;21.33;;;10.60;;
26157;SDS011;67284;44.782;10.282;2024-01-11T06:20:48;20.98;;;11.30;;
26157;SDS011;67284;44.782;10.282;2024-01-11T06:25:39;21.27;;;11.80;;
26157;SDS011;67284;44.782;10.282;2024-01-11T06:30:31;19.38;;;11.10;;
26157;SDS011;67284;44.782;10.282;2024-01-11T06:35:24;23.38;;;11.70;;
26157;SDS011;67284;44.782;10.282;2024-01-11T06:40:16;24.73;;;12.52;;
26157;SDS011;67284;44.782;10.282;2024-01-11T06:45:08;25.92;;;11.40;;
26157;SDS011;67284;44.782;10.282;2024-01-11T06:50:00;24.83;;;12.07;;
26157;SDS011;67284;44.782;10.282;2024-01-11T06:54:52;23.80;;;11.73;;
26157;SDS011;67284;44.782;10.282;2024-01-11T06:59:44;21.77;;;12.35;;
26157;SDS011;67284;44.782;10.282;2024-01-11T07:04:38;28.30;;;12.40;;
26157;SDS011;67284;44.782;10.282;2024-01-11T07:09:34;25.75;;;11.98;;
26157;SDS011;67284;44.782;10.282;2024-01-11T07:14:26;23.58;;;12.05;;
26157;SDS011;67284;44.782;10.282;2024-01-11T07:19:18;29.30;;;13.45;;
26157;SDS011;67284;44.782;10.282;2024-01-11T07:24:10;28.77;;;13.73;;
26157;SDS011;67284;44.782;10.282;2024-01-11T07:29:02;24.70;;;13.23;;
26157;SDS011;67284;44.782;10.282;2024-01-11T07:33:54;26.83;;;13.10;;
26157;SDS011;67284;44.782;10.282;2024-01-11T07:38:46;29.35;;;14.15;;
26157;SDS011;67284;44.782;10.282;2024-01-11T07:43:38;36.38;;;12.90;;
26157;SDS011;67284;44.782;10.282;2024-01-11T07:48:44;27.73;;;12.93;;
26157;SDS011;67284;44.782;10.282;2024-01-11T07:53:36;26.80;;;13.98;;
26157;SDS011;67284;44.782;10.282;2024-01-11T07:58:28;32.08;;;14.57;;
26157;SDS011;67284;44.782;10.282;2024-01-11T08:03:20;31.63;;;14.45;;
26157;SDS011;67284;44.782;10.282;2024-01-11T08:08:12;28.23;;;13.43;;
26157;SDS011;67284;44.782;10.282;2024-01-11T08:13:04;28.75;;;14.32;;
26157;SDS011;67284;44.782;10.282;2024-01-11T08:17:56;28.80;;;14.10;;
26157;SDS011;67284;44.782;10.282;2024-01-11T08:22:48;27.58;;;15.15;;
26157;SDS011;67284;44.782;10.282;2024-01-11T08:27:43;28.02;;;13.75;;
26157;SDS011;67284;44.782;10.282;2024-01-11T08:32:34;26.30;;;13.18;;
26157;SDS011;67284;44.782;10.282;2024-01-11T08:37:31;28.10;;;12.75;;
26157;SDS011;67284;44.782;10.282;2024-01-11T08:42:23;28.40;;;13.15;;
26157;SDS011;67284;44.782;10.282;2024-01-11T08:47:15;26.80;;;12.80;;
26157;SDS011;67284;44.782;10.282;2024-01-11T08:52:07;25.88;;;11.98;;
26157;SDS011;67284;44.782;10.282;2024-01-11T08:56:59;24.35;;;11.93;;
26157;SDS011;67284;44.782;10.282;2024-01-11T09:01:52;27.35;;;10.32;;
26157;SDS011;67284;44.782;10.282;2024-01-11T09:07:00;20.48;;;11.05;;
26157;SDS011;67284;44.782;10.282;2024-01-11T09:11:52;21.88;;;10.27;;
26157;SDS011;67284;44.782;10.282;2024-01-11T09:16:44;26.25;;;12.43;;
26157;SDS011;67284;44.782;10.282;2024-01-11T09:21:37;22.65;;;11.40;;
26157;SDS011;67284;44.782;10.282;2024-01-11T09:26:29;21.58;;;10.45;;
26157;SDS011;67284;44.782;10.282;2024-01-11T09:31:21;24.88;;;11.52;;
26157;SDS011;67284;44.782;10.282;2024-01-11T09:36:13;29.65;;;11.85;;
26157;SDS011;67284;44.782;10.282;2024-01-11T09:41:09;24.60;;;12.98;;
26157;SDS011;67284;44.782;10.282;2024-01-11T09:46:05;23.13;;;12.00;;
26157;SDS011;67284;44.782;10.282;2024-01-11T09:50:58;23.02;;;12.02;;
26157;SDS011;67284;44.782;10.282;2024-01-11T09:55:52;24.02;;;11.93;;
26157;SDS011;67284;44.782;10.282;2024-01-11T10:00:46;23.88;;;12.93;;
26157;SDS011;67284;44.782;10.282;2024-01-11T10:05:42;28.75;;;13.45;;
26157;SDS011;67284;44.782;10.282;2024-01-11T10:10:34;28.65;;;13.88;;
26157;SDS011;67284;44.782;10.282;2024-01-11T10:15:26;25.80;;;13.27;;
26157;SDS011;67284;44.782;10.282;2024-01-11T10:20:18;25.00;;;13.55;;
26157;SDS011;67284;44.782;10.282;2024-01-11T10:25:16;33.83;;;17.17;;
26157;SDS011;67284;44.782;10.282;2024-01-11T10:30:10;29.60;;;15.48;;
26157;SDS011;67284;44.782;10.282;2024-01-11T10:35:09;30.38;;;16.55;;
26157;SDS011;67284;44.782;10.282;2024-01-11T10:40:02;28.13;;;16.75;;
26157;SDS011;67284;44.782;10.282;2024-01-11T10:45:02;29.15;;;17.00;;
26157;SDS011;67284;44.782;10.282;2024-01-11T10:50:02;26.95;;;15.77;;
26157;SDS011;67284;44.782;10.282;2024-01-11T10:54:57;36.47;;;19.13;;
26157;SDS011;67284;44.782;10.282;2024-01-11T10:59:51;32.03;;;17.70;;
26157;SDS011;67284;44.782;10.282;2024-01-11T11:04:44;34.22;;;18.52;;
26157;SDS011;67284;44.782;10.282;2024-01-11T11:09:38;29.63;;;17.65;;
26157;SDS011;67284;44.782;10.282;2024-01-11T11:14:35;31.02;;;16.77;;
26157;SDS011;67284;44.782;10.282;2024-01-11T11:19:28;32.53;;;17.88;;
26157;SDS011;67284;44.782;10.282;2024-01-11T11:24:22;31.60;;;18.35;;
26157;SDS011;67284;44.782;10.282;2024-01-11T11:29:14;33.47;;;18.35;;
26157;SDS011;67284;44.782;10.282;2024-01-11T11:34:07;32.58;;;18.00;;
26157;SDS011;67284;44.782;10.282;2024-01-11T11:39:04;37.63;;;19.83;;
26157;SDS011;67284;44.782;10.282;2024-01-11T11:44:00;40.20;;;20.52;;
26157;SDS011;67284;44.782;10.282;2024-01-11T11:48:53;41.78;;;20.60;;
26157;SDS011;67284;44.782;10.282;2024-01-11T11:53:47;33.63;;;17.67;;
26157;SDS011;67284;44.782;10.282;2024-01-11T11:58:41;34.15;;;20.23;;
26157;SDS011;67284;44.782;10.282;2024-01-11T12:03:33;37.13;;;20.15;;
26157;SDS011;67284;44.782;10.282;2024-01-11T12:08:29;40.78;;;20.80;;
26157;SDS011;67284;44.782;10.282;2024-01-11T12:13:22;35.28;;;17.98;;
26157;SDS011;67284;44.782;10.282;2024-01-11T12:18:13;38.53;;;20.27;;
26157;SDS011;67284;44.782;10.282;2024-01-11T12:23:05;39.78;;;20.30;;
26157;SDS011;67284;44.782;10.282;2024-01-11T12:27:58;39.08;;;19.75;;
26157;SDS011;67284;44.782;10.282;2024-01-11T12:32:50;40.78;;;20.55;;
26157;SDS011;67284;44.782;10.282;2024-01-11T12:37:54;36.20;;;19.88;;
26157;SDS011;67284;44.782;10.282;2024-01-11T12:42:47;35.05;;;20.17;;
26157;SDS011;67284;44.782;10.282;2024-01-11T12:47:41;37.22;;;19.35;;
26157;SDS011;67284;44.782;10.282;2024-01-11T12:52:34;34.30;;;17.17;;
26157;SDS011;67284;44.782;10.282;2024-01-11T12:57:25;32.30;;;18.20;;
26157;SDS011;67284;44.782;10.282;2024-01-11T13:02:18;34.35;;;18.67;;
26157;SDS011;67284;44.782;10.282;2024-01-11T13:07:11;33.30;;;19.75;;
26157;SDS011;67284;44.782;10.282;2024-01-11T13:12:07;35.88;;;19.17;;
26157;SDS011;67284;44.782;10.282;2024-01-11T13:16:59;46.70;;;23.15;;
26157;SDS011;67284;44.782;10.282;2024-01-11T13:21:52;33.50;;;18.92;;
26157;SDS011;67284;44.782;10.282;2024-01-11T13:26:44;33.25;;;18.80;;
26157;SDS011;67284;44.782;10.282;2024-01-11T13:31:36;32.78;;;17.52;;
26157;SDS011;67284;44.782;10.282;2024-01-11T13:36:28;32.78;;;16.70;;
26157;SDS011;67284;44.782;10.282;2024-01-11T13:41:21;33.95;;;16.52;;
26157;SDS011;67284;44.782;10.282;2024-01-11T13:46:13;33.45;;;17.58;;
26157;SDS011;67284;44.782;10.282;2024-01-11T13:51:09;30.08;;;17.35;;
26157;SDS011;67284;44.782;10.282;2024-01-11T13:56:04;34.10;;;18.30;;
26157;SDS011;67284;44.782;10.282;2024-01-11T14:00:57;33.55;;;17.33;;
26157;SDS011;67284;44.782;10.282;2024-01-11T14:05:49;35.25;;;17.08;;
26157;SDS011;67284;44.782;10.282;2024-01-11T14:10:42;34.90;;;18.17;;
26157;SDS011;67284;44.782;10.282;2024-01-11T14:15:34;36.35;;;19.13;;
26157;SDS011;67284;44.782;10.282;2024-01-11T14:20:28;31.27;;;17.63;;
26157;SDS011;67284;44.782;10.282;2024-01-11T14:25:23;40.63;;;19.98;;
26157;SDS011;67284;44.782;10.282;2024-01-11T14:30:16;35.10;;;20.63;;
26157;SDS011;67284;44.782;10.282;2024-01-11T14:35:08;39.38;;;19.33;;
26157;SDS011;67284;44.782;10.282;2024-01-11T14:40:01;37.13;;;19.35;;
26157;SDS011;67284;44.782;10.282;2024-01-11T14:44:53;38.47;;;20.35;;
26157;SDS011;67284;44.782;10.282;2024-01-11T14:49:46;39.58;;;20.33;;
26157;SDS011;67284;44.782;10.282;2024-01-11T14:54:38;33.28;;;18.02;;
26157;SDS011;67284;44.782;10.282;2024-01-11T14:59:33;34.50;;;17.50;;
26157;SDS011;67284;44.782;10.282;2024-01-11T15:04:25;33.95;;;17.73;;
26157;SDS011;67284;44.782;10.282;2024-01-11T15:09:17;38.15;;;18.13;;
26157;SDS011;67284;44.782;10.282;2024-01-11T15:14:09;37.55;;;18.52;;
26157;SDS011;67284;44.782;10.282;2024-01-11T15:19:01;35.05;;;18.27;;
26157;SDS011;67284;44.782;10.282;2024-01-11T15:23:56;34.83;;;17.52;;
26157;SDS011;67284;44.782;10.282;2024-01-11T15:28:50;30.83;;;16.80;;
26157;SDS011;67284;44.782;10.282;2024-01-11T15:33:42;39.70;;;20.27;;
26157;SDS011;67284;44.782;10.282;2024-01-11T15:38:35;35.70;;;17.67;;
26157;SDS011;67284;44.782;10.282;2024-01-11T15:43:27;36.58;;;18.70;;
26157;SDS011;67284;44.782;10.282;2024-01-11T15:48:19;36.15;;;18.33;;
26157;SDS011;67284;44.782;10.282;2024-01-11T15:53:11;36.40;;;19.00;;
26157;SDS011;67284;44.782;10.282;2024-01-11T15:58:03;37.85;;;20.08;;
26157;SDS011;67284;44.782;10.282;2024-01-11T16:02:55;38.13;;;19.75;;
26157;SDS011;67284;44.782;10.282;2024-01-11T16:07:48;38.47;;;18.52;;
26157;SDS011;67284;44.782;10.282;2024-01-11T16:12:39;36.22;;;19.98;;
26157;SDS011;67284;44.782;10.282;2024-01-11T16:17:31;40.80;;;21.45;;
26157;SDS011;67284;44.782;10.282;2024-01-11T16:22:24;34.88;;;20.15;;
26157;SDS011;67284;44.782;10.282;2024-01-11T16:27:17;35.80;;;20.58;;
26157;SDS011;67284;44.782;10.282;2024-01-11T16:32:09;45.25;;;20.20;;
26157;SDS011;67284;44.782;10.282;2024-01-11T16:37:02;41.45;;;20.90;;
26157;SDS011;67284;44.782;10.282;2024-01-11T16:41:54;38.47;;;19.48;;
26157;SDS011;67284;44.782;10.282;2024-01-11T16:46:46;43.45;;;22.48;;
26157;SDS011;67284;44.782;10.282;2024-01-11T16:51:44;43.33;;;22.08;;
26157;SDS011;67284;44.782;10.282;2024-01-11T16:56:41;44.75;;;22.00;;
26157;SDS011;67284;44.782;10.282;2024-01-11T17:01:33;40.42;;;20.65;;
26157;SDS011;67284;44.782;10.282;2024-01-11T17:06:25;47.42;;;22.00;;
26157;SDS011;67284;44.782;10.282;2024-01-11T17:11:17;38.90;;;20.77;;
26157;SDS011;67284;44.782;10.282;2024-01-11T17:16:15;43.58;;;22.05;;
26157;SDS011;67284;44.782;10.282;2024-01-11T17:25:59;39.25;;;21.92;;
26157;SDS011;67284;44.782;10.282;2024-01-11T17:30:55;37.53;;;20.88;;
26157;SDS011;67284;44.782;10.282;2024-01-11T17:35:47;41.83;;;22.23;;
26157;SDS011;67284;44.782;10.282;2024-01-11T17:40:40;47.28;;;24.13;;
26157;SDS011;67284;44.782;10.282;2024-01-11T17:45:32;53.05;;;23.48;;
26157;SDS011;67284;44.782;10.282;2024-01-11T17:50:27;44.67;;;21.35;;
26157;SDS011;67284;44.782;10.282;2024-01-11T17:55:19;47.95;;;24.05;;
26157;SDS011;67284;44.782;10.282;2024-01-11T18:00:12;37.97;;;20.92;;
26157;SDS011;67284;44.782;10.282;2024-01-11T18:05:05;45.70;;;22.13;;
26157;SDS011;67284;44.782;10.282;2024-01-11T18:09:57;42.38;;;22.33;;
26157;SDS011;67284;44.782;10.282;2024-01-11T18:14:49;41.30;;;20.92;;
26157;SDS011;67284;44.782;10.282;2024-01-11T18:19:41;40.65;;;20.42;;
26157;SDS011;67284;44.782;10.282;2024-01-11T18:24:34;45.13;;;21.83;;
26157;SDS011;67284;44.782;10.282;2024-01-11T18:29:26;38.15;;;20.83;;
26157;SDS011;67284;44.782;10.282;2024-01-11T18:34:20;36.63;;;19.92;;
26157;SDS011;67284;44.782;10.282;2024-01-11T18:39:12;38.33;;;19.25;;
26157;SDS011;67284;44.782;10.282;2024-01-11T18:44:04;36.38;;;19.10;;
26157;SDS011;67284;44.782;10.282;2024-01-11T18:48:56;37.40;;;19.38;;
26157;SDS011;67284;44.782;10.282;2024-01-11T18:53:48;41.10;;;21.65;;
26157;SDS011;67284;44.782;10.282;2024-01-11T18:58:40;35.40;;;18.50;;
26157;SDS011;67284;44.782;10.282;2024-01-11T19:03:32;41.28;;;19.92;;
26157;SDS011;67284;44.782;10.282;2024-01-11T19:08:24;39.08;;;20.20;;
26157;SDS011;67284;44.782;10.282;2024-01-11T19:13:19;38.05;;;20.42;;
26157;SDS011;67284;44.782;10.282;2024-01-11T19:18:11;43.80;;;21.42;;
26157;SDS011;67284;44.782;10.282;2024-01-11T19:23:04;44.75;;;21.55;;
26157;SDS011;67284;44.782;10.282;2024-01-11T19:27:56;40.88;;;22.05;;
26157;SDS011;67284;44.782;10.282;2024-01-11T19:32:51;49.45;;;21.75;;
26157;SDS011;67284;44.782;10.282;2024-01-11T19:37:43;40.88;;;21.30;;
26157;SDS011;67284;44.782;10.282;2024-01-11T19:42:35;39.63;;;20.58;;
26157;SDS011;67284;44.782;10.282;2024-01-11T19:47:27;39.42;;;19.92;;
26157;SDS011;67284;44.782;10.282;2024-01-11T19:52:19;42.17;;;22.02;;
26157;SDS011;67284;44.782;10.282;2024-01-11T19:57:11;50.47;;;23.25;;
26157;SDS011;67284;44.782;10.282;2024-01-11T20:02:04;51.10;;;25.70;;
26157;SDS011;67284;44.782;10.282;2024-01-11T20:06:56;53.42;;;24.70;;
26157;SDS011;67284;44.782;10.282;2024-01-11T20:11:48;47.88;;;24.27;;
26157;SDS011;67284;44.782;10.282;2024-01-11T20:16:40;54.33;;;24.70;;
26157;SDS011;67284;44.782;10.282;2024-01-11T20:21:32;49.72;;;23.50;;
26157;SDS011;67284;44.782;10.282;2024-01-11T20:26:24;40.40;;;21.17;;
26157;SDS011;67284;44.782;10.282;2024-01-11T20:31:19;43.17;;;22.20;;
26157;SDS011;67284;44.782;10.282;2024-01-11T20:36:12;38.25;;;20.88;;
26157;SDS011;67284;44.782;10.282;2024-01-11T20:41:04;35.55;;;18.13;;
26157;SDS011;67284;44.782;10.282;2024-01-11T20:45:56;33.92;;;17.00;;
26157;SDS011;67284;44.782;10.282;2024-01-11T20:50:48;31.73;;;14.85;;
26157;SDS011;67284;44.782;10.282;2024-01-11T20:55:40;28.75;;;13.68;;
26157;SDS011;67284;44.782;10.282;2024-01-11T21:00:32;26.80;;;14.15;;
26157;SDS011;67284;44.782;10.282;2024-01-11T21:05:24;30.13;;;14.25;;
26157;SDS011;67284;44.782;10.282;2024-01-11T21:10:16;26.58;;;13.48;;
26157;SDS011;67284;44.782;10.282;2024-01-11T21:15:08;28.17;;;13.57;;
26157;SDS011;67284;44.782;10.282;2024-01-11T21:20:00;24.23;;;12.88;;
26157;SDS011;67284;44.782;10.282;2024-01-11T21:24:52;22.55;;;12.02;;
26157;SDS011;67284;44.782;10.282;2024-01-11T21:29:45;22.58;;;11.52;;
26157;SDS011;67284;44.782;10.282;2024-01-11T21:34:38;25.42;;;12.05;;
26157;SDS011;67284;44.782;10.282;2024-01-11T21:39:30;27.15;;;13.05;;
26157;SDS011;67284;44.782;10.282;2024-01-11T21:44:21;23.45;;;12.60;;
26157;SDS011;67284;44.782;10.282;2024-01-11T21:49:14;25.70;;;12.93;;
26157;SDS011;67284;44.782;10.282;2024-01-11T21:54:10;24.23;;;11.98;;
26157;SDS011;67284;44.782;10.282;2024-01-11T21:59:02;21.45;;;11.95;;
26157;SDS011;67284;44.782;10.282;2024-01-11T22:03:54;24.58;;;13.80;;
26157;SDS011;67284;44.782;10.282;2024-01-11T22:08:48;23.73;;;12.10;;
26157;SDS011;67284;44.782;10.282;2024-01-11T22:13:40;24.58;;;13.73;;
26157;SDS011;67284;44.782;10.282;2024-01-11T22:18:32;35.90;;;17.35;;
26157;SDS011;67284;44.782;10.282;2024-01-11T22:23:24;36.42;;;16.67;;
26157;SDS011;67284;44.782;10.282;2024-01-11T22:28:16;37.03;;;17.08;;
26157;SDS011;67284;44.782;10.282;2024-01-11T22:33:08;25.33;;;14.30;;
26157;SDS011;67284;44.782;10.282;2024-01-11T22:38:04;27.50;;;13.98;;
26157;SDS011;67284;44.782;10.282;2024-01-11T22:42:57;24.25;;;12.90;;
26157;SDS011;67284;44.782;10.282;2024-01-11T22:47:49;26.10;;;12.30;;
26157;SDS011;67284;44.782;10.282;2024-01-11T22:52:41;22.70;;;11.32;;
26157;SDS011;67284;44.782;10.282;2024-01-11T22:57:32;20.80;;;10.95;;
26157;SDS011;67284;44.782;10.282;2024-01-11T23:02:25;21.23;;;10.52;;
26157;SDS011;67284;44.782;10.282;2024-01-11T23:07:17;18.13;;;8.77;;
26157;SDS011;67284;44.782;10.282;2024-01-11T23:12:09;17.40;;;9.32;;
26157;SDS011;67284;44.782;10.282;2024-01-11T23:17:01;15.93;;;8.15;;
26157;SDS011;67284;44.782;10.282;2024-01-11T23:21:53;14.48;;;8.35;;
26157;SDS011;67284;44.782;10.282;2024-01-11T23:26:45;14.38;;;8.07;;
26157;SDS011;67284;44.782;10.282;2024-01-11T23:31:37;17.27;;;7.88;;
26157;SDS011;67284;44.782;10.282;2024-01-11T23:36:28;14.20;;;7.47;;
26157;SDS011;67284;44.782;10.282;2024-01-11T23:41:20;13.57;;;8.00;;
26157;SDS011;67284;44.782;10.282;2024-01-11T23:46:12;14.00;;;8.27;;
26157;SDS011;67284;44.782;10.282;2024-01-11T23:51:04;13.45;;;7.88;;
26157;SDS011;67284;44.782;10.282;2024-01-11T23:55:56;14.73;;;7.15;;
